sensor_id;sensor_type;location;lat;lon;timestamp;temperature;humidity
71039;SHT30;58692;43.212;27.908;2023-12-28T00:01:28;8.95;74.16
71039;SHT30;58692;43.212;27.908;2023-12-28T00:03:54;8.88;74.21
71039;SHT30;58692;43.212;27.908;2023-12-28T00:06:19;8.95;74.16
71039;SHT30;58692;43.212;27.908;2023-12-28T00:08:45;8.95;74.20
71039;SHT30;58692;43.212;27.908;2023-12-28T00:11:11;8.89;74.33
71039;SHT30;58692;43.212;27.908;2023-12-28T00:13:36;8.89;74.29
71039;SHT30;58692;43.212;27.908;2023-12-28T00:16:02;8.90;74.30
71039;SHT30;58692;43.212;27.908;2023-12-28T00:18:27;8.73;74.76
71039;SHT30;58692;43.212;27.908;2023-12-28T00:20:53;8.85;74.54
71039;SHT30;58692;43.212;27.908;2023-12-28T00:23:19;8.68;75.20
71039;SHT30;58692;43.212;27.908;2023-12-28T00:25:45;8.66;75.19
71039;SHT30;58692;43.212;27.908;2023-12-28T00:28:11;8.76;75.16
71039;SHT30;58692;43.212;27.908;2023-12-28T00:30:37;8.75;75.12
71039;SHT30;58692;43.212;27.908;2023-12-28T00:33:03;8.78;74.96
71039;SHT30;58692;43.212;27.908;2023-12-28T00:35:28;8.83;74.76
71039;SHT30;58692;43.212;27.908;2023-12-28T00:37:54;8.90;74.59
71039;SHT30;58692;43.212;27.908;2023-12-28T00:40:19;8.86;74.64
71039;SHT30;58692;43.212;27.908;2023-12-28T00:42:47;8.85;74.79
71039;SHT30;58692;43.212;27.908;2023-12-28T00:45:13;8.93;74.52
71039;SHT30;58692;43.212;27.908;2023-12-28T00:47:38;8.95;74.40
71039;SHT30;58692;43.212;27.908;2023-12-28T00:50:04;8.85;74.40
71039;SHT30;58692;43.212;27.908;2023-12-28T00:52:30;8.86;74.71
71039;SHT30;58692;43.212;27.908;2023-12-28T00:54:56;8.89;74.46
71039;SHT30;58692;43.212;27.908;2023-12-28T00:57:21;8.80;74.71
71039;SHT30;58692;43.212;27.908;2023-12-28T00:59:47;8.93;74.53
71039;SHT30;58692;43.212;27.908;2023-12-28T01:02:13;8.95;74.27
71039;SHT30;58692;43.212;27.908;2023-12-28T01:04:38;8.92;74.32
71039;SHT30;58692;43.212;27.908;2023-12-28T01:07:04;8.93;74.24
71039;SHT30;58692;43.212;27.908;2023-12-28T01:09:31;8.95;74.23
71039;SHT30;58692;43.212;27.908;2023-12-28T01:11:58;8.92;74.29
71039;SHT30;58692;43.212;27.908;2023-12-28T01:14:24;8.93;74.46
71039;SHT30;58692;43.212;27.908;2023-12-28T01:16:49;8.95;74.38
71039;SHT30;58692;43.212;27.908;2023-12-28T01:19:15;8.88;74.69
71039;SHT30;58692;43.212;27.908;2023-12-28T01:21:41;8.73;74.90
71039;SHT30;58692;43.212;27.908;2023-12-28T01:24:07;8.80;74.72
71039;SHT30;58692;43.212;27.908;2023-12-28T01:26:32;8.85;74.60
71039;SHT30;58692;43.212;27.908;2023-12-28T01:29:00;8.83;74.63
71039;SHT30;58692;43.212;27.908;2023-12-28T01:31:28;8.85;74.61
71039;SHT30;58692;43.212;27.908;2023-12-28T01:33:54;8.79;74.70
71039;SHT30;58692;43.212;27.908;2023-12-28T01:36:20;8.73;74.92
71039;SHT30;58692;43.212;27.908;2023-12-28T01:38:47;8.76;74.71
71039;SHT30;58692;43.212;27.908;2023-12-28T01:41:13;8.78;74.65
71039;SHT30;58692;43.212;27.908;2023-12-28T01:43:41;8.79;74.60
71039;SHT30;58692;43.212;27.908;2023-12-28T01:46:09;8.78;74.68
71039;SHT30;58692;43.212;27.908;2023-12-28T01:48:36;8.69;74.90
71039;SHT30;58692;43.212;27.908;2023-12-28T01:51:02;8.71;74.92
71039;SHT30;58692;43.212;27.908;2023-12-28T01:53:28;8.69;74.89
71039;SHT30;58692;43.212;27.908;2023-12-28T01:55:55;8.65;75.00
71039;SHT30;58692;43.212;27.908;2023-12-28T01:58:21;8.66;74.91
71039;SHT30;58692;43.212;27.908;2023-12-28T02:00:47;8.56;75.08
71039;SHT30;58692;43.212;27.908;2023-12-28T02:03:15;8.52;75.31
71039;SHT30;58692;43.212;27.908;2023-12-28T02:05:41;8.48;75.54
71039;SHT30;58692;43.212;27.908;2023-12-28T02:08:06;8.48;75.40
71039;SHT30;58692;43.212;27.908;2023-12-28T02:10:32;8.49;75.38
71039;SHT30;58692;43.212;27.908;2023-12-28T02:12:58;8.48;75.55
71039;SHT30;58692;43.212;27.908;2023-12-28T02:15:23;8.35;75.89
71039;SHT30;58692;43.212;27.908;2023-12-28T02:17:58;8.31;75.81
71039;SHT30;58692;43.212;27.908;2023-12-28T02:20:29;8.14;76.34
71039;SHT30;58692;43.212;27.908;2023-12-28T02:22:56;7.95;77.35
71039;SHT30;58692;43.212;27.908;2023-12-28T02:25:22;7.80;78.42
71039;SHT30;58692;43.212;27.908;2023-12-28T02:27:48;7.70;79.01
71039;SHT30;58692;43.212;27.908;2023-12-28T02:30:16;7.67;79.32
71039;SHT30;58692;43.212;27.908;2023-12-28T02:37:56;7.32;80.47
71039;SHT30;58692;43.212;27.908;2023-12-28T02:40:23;7.29;80.47
71039;SHT30;58692;43.212;27.908;2023-12-28T02:42:50;7.32;80.41
71039;SHT30;58692;43.212;27.908;2023-12-28T02:45:17;7.33;80.23
71039;SHT30;58692;43.212;27.908;2023-12-28T02:47:43;7.39;79.84
71039;SHT30;58692;43.212;27.908;2023-12-28T02:50:09;7.49;79.74
71039;SHT30;58692;43.212;27.908;2023-12-28T02:52:35;7.59;79.33
71039;SHT30;58692;43.212;27.908;2023-12-28T02:55:00;7.59;79.07
71039;SHT30;58692;43.212;27.908;2023-12-28T02:57:26;7.63;79.10
71039;SHT30;58692;43.212;27.908;2023-12-28T02:59:52;7.63;78.85
71039;SHT30;58692;43.212;27.908;2023-12-28T03:02:17;7.60;78.77
71039;SHT30;58692;43.212;27.908;2023-12-28T03:04:43;7.59;78.72
71039;SHT30;58692;43.212;27.908;2023-12-28T03:07:09;7.62;78.55
71039;SHT30;58692;43.212;27.908;2023-12-28T03:09:34;7.60;78.61
71039;SHT30;58692;43.212;27.908;2023-12-28T03:12:00;7.60;78.65
71039;SHT30;58692;43.212;27.908;2023-12-28T03:14:26;7.58;78.96
71039;SHT30;58692;43.212;27.908;2023-12-28T03:16:52;7.53;78.87
71039;SHT30;58692;43.212;27.908;2023-12-28T03:19:17;7.50;78.79
71039;SHT30;58692;43.212;27.908;2023-12-28T03:21:43;7.58;78.61
71039;SHT30;58692;43.212;27.908;2023-12-28T03:24:09;7.63;78.43
71039;SHT30;58692;43.212;27.908;2023-12-28T03:26:38;7.65;78.25
71039;SHT30;58692;43.212;27.908;2023-12-28T03:29:05;7.60;78.34
71039;SHT30;58692;43.212;27.908;2023-12-28T03:31:31;7.58;78.30
71039;SHT30;58692;43.212;27.908;2023-12-28T03:33:57;7.58;78.22
71039;SHT30;58692;43.212;27.908;2023-12-28T03:36:22;7.40;78.41
71039;SHT30;58692;43.212;27.908;2023-12-28T03:38:48;7.28;78.95
71039;SHT30;58692;43.212;27.908;2023-12-28T03:41:21;7.16;79.16
71039;SHT30;58692;43.212;27.908;2023-12-28T03:43:47;7.04;79.51
71039;SHT30;58692;43.212;27.908;2023-12-28T03:46:13;7.09;79.32
71039;SHT30;58692;43.212;27.908;2023-12-28T03:48:39;7.09;79.57
71039;SHT30;58692;43.212;27.908;2023-12-28T03:51:05;7.14;79.27
71039;SHT30;58692;43.212;27.908;2023-12-28T03:53:32;6.95;79.80
71039;SHT30;58692;43.212;27.908;2023-12-28T03:55:59;7.01;79.73
71039;SHT30;58692;43.212;27.908;2023-12-28T03:58:24;6.98;79.75
71039;SHT30;58692;43.212;27.908;2023-12-28T04:00:50;7.01;79.81
71039;SHT30;58692;43.212;27.908;2023-12-28T04:03:16;7.04;79.61
71039;SHT30;58692;43.212;27.908;2023-12-28T04:05:43;7.01;79.65
71039;SHT30;58692;43.212;27.908;2023-12-28T04:08:09;7.04;79.60
71039;SHT30;58692;43.212;27.908;2023-12-28T04:10:34;6.84;80.29
71039;SHT30;58692;43.212;27.908;2023-12-28T04:13:02;6.88;80.16
71039;SHT30;58692;43.212;27.908;2023-12-28T04:15:28;6.95;79.80
71039;SHT30;58692;43.212;27.908;2023-12-28T04:17:54;6.97;79.62
71039;SHT30;58692;43.212;27.908;2023-12-28T04:20:19;6.92;79.56
71039;SHT30;58692;43.212;27.908;2023-12-28T04:22:45;6.91;79.49
71039;SHT30;58692;43.212;27.908;2023-12-28T04:25:11;6.85;79.47
71039;SHT30;58692;43.212;27.908;2023-12-28T04:27:37;6.70;79.91
71039;SHT30;58692;43.212;27.908;2023-12-28T04:30:04;6.64;79.89
71039;SHT30;58692;43.212;27.908;2023-12-28T04:32:31;6.50;80.45
71039;SHT30;58692;43.212;27.908;2023-12-28T04:34:57;6.54;80.41
71039;SHT30;58692;43.212;27.908;2023-12-28T04:37:23;6.56;80.56
71039;SHT30;58692;43.212;27.908;2023-12-28T04:39:49;6.54;80.50
71039;SHT30;58692;43.212;27.908;2023-12-28T04:42:14;6.60;80.41
71039;SHT30;58692;43.212;27.908;2023-12-28T04:44:40;6.63;80.23
71039;SHT30;58692;43.212;27.908;2023-12-28T04:47:06;6.66;80.18
71039;SHT30;58692;43.212;27.908;2023-12-28T04:49:31;6.66;80.19
71039;SHT30;58692;43.212;27.908;2023-12-28T04:51:57;6.56;80.55
71039;SHT30;58692;43.212;27.908;2023-12-28T04:54:23;6.57;80.52
71039;SHT30;58692;43.212;27.908;2023-12-28T04:56:49;6.66;80.11
71039;SHT30;58692;43.212;27.908;2023-12-28T04:59:14;6.74;79.93
71039;SHT30;58692;43.212;27.908;2023-12-28T05:01:41;6.74;79.88
71039;SHT30;58692;43.212;27.908;2023-12-28T05:04:07;6.71;80.04
71039;SHT30;58692;43.212;27.908;2023-12-28T05:06:32;6.63;80.32
71039;SHT30;58692;43.212;27.908;2023-12-28T05:08:58;6.63;80.31
71039;SHT30;58692;43.212;27.908;2023-12-28T05:11:23;6.60;80.22
71039;SHT30;58692;43.212;27.908;2023-12-28T05:13:49;6.41;80.61
71039;SHT30;58692;43.212;27.908;2023-12-28T05:16:15;6.26;81.02
71039;SHT30;58692;43.212;27.908;2023-12-28T05:18:40;6.05;81.32
71039;SHT30;58692;43.212;27.908;2023-12-28T05:21:06;5.92;81.52
71039;SHT30;58692;43.212;27.908;2023-12-28T05:23:31;5.92;81.65
71039;SHT30;58692;43.212;27.908;2023-12-28T05:25:57;5.93;81.68
71039;SHT30;58692;43.212;27.908;2023-12-28T05:28:22;5.93;81.65
71039;SHT30;58692;43.212;27.908;2023-12-28T05:30:48;5.85;81.99
71039;SHT30;58692;43.212;27.908;2023-12-28T05:33:14;5.76;82.14
71039;SHT30;58692;43.212;27.908;2023-12-28T05:35:39;5.73;82.23
71039;SHT30;58692;43.212;27.908;2023-12-28T05:38:05;5.63;82.89
71039;SHT30;58692;43.212;27.908;2023-12-28T05:40:30;5.73;82.39
71039;SHT30;58692;43.212;27.908;2023-12-28T05:42:56;5.76;82.28
71039;SHT30;58692;43.212;27.908;2023-12-28T05:45:22;5.72;82.47
71039;SHT30;58692;43.212;27.908;2023-12-28T05:47:47;5.88;82.15
71039;SHT30;58692;43.212;27.908;2023-12-28T05:50:13;5.93;81.86
71039;SHT30;58692;43.212;27.908;2023-12-28T05:52:39;5.92;82.01
71039;SHT30;58692;43.212;27.908;2023-12-28T05:55:04;5.93;81.85
71039;SHT30;58692;43.212;27.908;2023-12-28T05:57:30;5.93;81.91
71039;SHT30;58692;43.212;27.908;2023-12-28T05:59:57;5.91;82.16
71039;SHT30;58692;43.212;27.908;2023-12-28T06:02:23;5.99;82.19
71039;SHT30;58692;43.212;27.908;2023-12-28T06:04:49;6.02;82.04
71039;SHT30;58692;43.212;27.908;2023-12-28T06:07:15;5.99;82.27
71039;SHT30;58692;43.212;27.908;2023-12-28T06:09:40;5.75;82.67
71039;SHT30;58692;43.212;27.908;2023-12-28T06:12:06;5.89;81.96
71039;SHT30;58692;43.212;27.908;2023-12-28T06:14:32;5.92;81.48
71039;SHT30;58692;43.212;27.908;2023-12-28T06:16:58;5.86;81.05
71039;SHT30;58692;43.212;27.908;2023-12-28T06:19:24;5.86;80.90
71039;SHT30;58692;43.212;27.908;2023-12-28T06:21:50;5.85;81.49
71039;SHT30;58692;43.212;27.908;2023-12-28T06:24:16;6.02;81.24
71039;SHT30;58692;43.212;27.908;2023-12-28T06:26:42;6.10;80.78
71039;SHT30;58692;43.212;27.908;2023-12-28T06:29:09;6.23;81.04
71039;SHT30;58692;43.212;27.908;2023-12-28T06:31:35;6.40;80.57
71039;SHT30;58692;43.212;27.908;2023-12-28T06:34:03;6.74;79.90
71039;SHT30;58692;43.212;27.908;2023-12-28T06:36:29;7.55;78.24
71039;SHT30;58692;43.212;27.908;2023-12-28T06:38:56;8.18;75.27
71039;SHT30;58692;43.212;27.908;2023-12-28T06:41:21;9.02;73.29
71039;SHT30;58692;43.212;27.908;2023-12-28T06:43:47;9.58;71.47
71039;SHT30;58692;43.212;27.908;2023-12-28T06:46:13;10.08;68.93
71039;SHT30;58692;43.212;27.908;2023-12-28T06:48:38;10.65;68.15
71039;SHT30;58692;43.212;27.908;2023-12-28T06:51:06;11.03;67.25
71039;SHT30;58692;43.212;27.908;2023-12-28T06:53:32;11.26;65.22
71039;SHT30;58692;43.212;27.908;2023-12-28T06:55:57;11.24;64.63
71039;SHT30;58692;43.212;27.908;2023-12-28T06:58:23;11.55;64.68
71039;SHT30;58692;43.212;27.908;2023-12-28T07:00:49;11.82;63.46
71039;SHT30;58692;43.212;27.908;2023-12-28T07:03:14;11.93;63.33
71039;SHT30;58692;43.212;27.908;2023-12-28T07:05:40;12.08;63.18
71039;SHT30;58692;43.212;27.908;2023-12-28T07:08:06;11.89;63.81
71039;SHT30;58692;43.212;27.908;2023-12-28T07:10:31;11.88;63.84
71039;SHT30;58692;43.212;27.908;2023-12-28T07:12:57;12.10;64.14
71039;SHT30;58692;43.212;27.908;2023-12-28T07:15:23;12.40;62.93
71039;SHT30;58692;43.212;27.908;2023-12-28T07:17:48;12.32;62.81
71039;SHT30;58692;43.212;27.908;2023-12-28T07:20:14;12.28;63.83
71039;SHT30;58692;43.212;27.908;2023-12-28T07:22:40;12.19;63.22
71039;SHT30;58692;43.212;27.908;2023-12-28T07:25:07;12.26;62.92
71039;SHT30;58692;43.212;27.908;2023-12-28T07:27:33;11.86;63.53
71039;SHT30;58692;43.212;27.908;2023-12-28T07:29:59;12.02;63.44
71039;SHT30;58692;43.212;27.908;2023-12-28T07:32:25;11.88;64.04
71039;SHT30;58692;43.212;27.908;2023-12-28T07:34:53;11.26;65.55
71039;SHT30;58692;43.212;27.908;2023-12-28T07:37:18;10.97;66.41
71039;SHT30;58692;43.212;27.908;2023-12-28T07:39:44;11.03;66.53
71039;SHT30;58692;43.212;27.908;2023-12-28T07:42:10;11.07;66.94
71039;SHT30;58692;43.212;27.908;2023-12-28T07:44:35;10.79;67.11
71039;SHT30;58692;43.212;27.908;2023-12-28T07:47:01;10.39;68.03
71039;SHT30;58692;43.212;27.908;2023-12-28T07:49:28;9.70;70.04
71039;SHT30;58692;43.212;27.908;2023-12-28T07:51:54;9.73;70.12
71039;SHT30;58692;43.212;27.908;2023-12-28T07:54:20;9.74;71.12
71039;SHT30;58692;43.212;27.908;2023-12-28T07:56:45;9.91;70.50
71039;SHT30;58692;43.212;27.908;2023-12-28T07:59:15;10.08;70.33
71039;SHT30;58692;43.212;27.908;2023-12-28T08:01:41;10.13;70.08
71039;SHT30;58692;43.212;27.908;2023-12-28T08:04:07;10.43;69.99
71039;SHT30;58692;43.212;27.908;2023-12-28T08:06:33;10.50;69.83
71039;SHT30;58692;43.212;27.908;2023-12-28T08:08:59;10.57;69.83
71039;SHT30;58692;43.212;27.908;2023-12-28T08:11:27;10.89;69.17
71039;SHT30;58692;43.212;27.908;2023-12-28T08:13:53;11.01;68.89
71039;SHT30;58692;43.212;27.908;2023-12-28T08:16:19;11.14;68.40
71039;SHT30;58692;43.212;27.908;2023-12-28T08:18:45;11.11;68.68
71039;SHT30;58692;43.212;27.908;2023-12-28T08:21:10;11.41;68.35
71039;SHT30;58692;43.212;27.908;2023-12-28T08:23:36;11.65;67.58
71039;SHT30;58692;43.212;27.908;2023-12-28T08:26:02;11.68;67.22
71039;SHT30;58692;43.212;27.908;2023-12-28T08:28:28;11.86;66.68
71039;SHT30;58692;43.212;27.908;2023-12-28T08:30:55;12.05;65.73
71039;SHT30;58692;43.212;27.908;2023-12-28T08:33:21;12.08;64.53
71039;SHT30;58692;43.212;27.908;2023-12-28T08:35:47;11.96;65.03
71039;SHT30;58692;43.212;27.908;2023-12-28T08:38:12;11.93;65.37
71039;SHT30;58692;43.212;27.908;2023-12-28T08:40:38;11.96;65.48
71039;SHT30;58692;43.212;27.908;2023-12-28T08:43:04;12.06;65.30
71039;SHT30;58692;43.212;27.908;2023-12-28T08:45:29;12.16;65.32
71039;SHT30;58692;43.212;27.908;2023-12-28T08:47:55;12.29;65.08
71039;SHT30;58692;43.212;27.908;2023-12-28T08:50:21;12.60;64.23
71039;SHT30;58692;43.212;27.908;2023-12-28T08:52:47;12.49;64.69
71039;SHT30;58692;43.212;27.908;2023-12-28T08:55:13;12.53;64.88
71039;SHT30;58692;43.212;27.908;2023-12-28T08:57:39;12.60;65.20
71039;SHT30;58692;43.212;27.908;2023-12-28T09:00:05;12.71;64.60
71039;SHT30;58692;43.212;27.908;2023-12-28T09:02:31;13.05;64.42
71039;SHT30;58692;43.212;27.908;2023-12-28T09:04:58;13.05;64.00
71039;SHT30;58692;43.212;27.908;2023-12-28T09:07:24;13.24;63.83
71039;SHT30;58692;43.212;27.908;2023-12-28T09:09:50;13.36;63.04
71039;SHT30;58692;43.212;27.908;2023-12-28T09:12:16;14.07;61.59
71039;SHT30;58692;43.212;27.908;2023-12-28T09:14:41;13.99;61.21
71039;SHT30;58692;43.212;27.908;2023-12-28T09:17:07;14.20;61.34
71039;SHT30;58692;43.212;27.908;2023-12-28T09:19:32;14.33;61.48
71039;SHT30;58692;43.212;27.908;2023-12-28T09:21:58;14.91;60.21
71039;SHT30;58692;43.212;27.908;2023-12-28T09:24:24;14.96;59.77
71039;SHT30;58692;43.212;27.908;2023-12-28T09:26:50;14.65;60.98
71039;SHT30;58692;43.212;27.908;2023-12-28T09:29:15;14.64;61.39
71039;SHT30;58692;43.212;27.908;2023-12-28T09:31:41;14.07;63.31
71039;SHT30;58692;43.212;27.908;2023-12-28T09:34:06;14.68;62.28
71039;SHT30;58692;43.212;27.908;2023-12-28T09:36:32;14.70;62.50
71039;SHT30;58692;43.212;27.908;2023-12-28T09:38:58;15.02;62.00
71039;SHT30;58692;43.212;27.908;2023-12-28T09:41:27;15.32;61.25
71039;SHT30;58692;43.212;27.908;2023-12-28T09:44:11;15.18;62.14
71039;SHT30;58692;43.212;27.908;2023-12-28T09:46:41;15.08;62.43
71039;SHT30;58692;43.212;27.908;2023-12-28T09:49:07;14.98;63.31
71039;SHT30;58692;43.212;27.908;2023-12-28T09:51:32;15.28;62.99
71039;SHT30;58692;43.212;27.908;2023-12-28T09:53:58;15.90;61.49
71039;SHT30;58692;43.212;27.908;2023-12-28T09:56:24;15.93;61.37
71039;SHT30;58692;43.212;27.908;2023-12-28T09:58:51;16.54;59.98
71039;SHT30;58692;43.212;27.908;2023-12-28T10:01:18;16.07;60.91
71039;SHT30;58692;43.212;27.908;2023-12-28T10:03:44;16.59;59.75
71039;SHT30;58692;43.212;27.908;2023-12-28T10:06:09;17.05;58.55
71039;SHT30;58692;43.212;27.908;2023-12-28T10:08:35;17.74;56.85
71039;SHT30;58692;43.212;27.908;2023-12-28T10:11:02;17.44;57.37
71039;SHT30;58692;43.212;27.908;2023-12-28T10:13:28;16.47;60.27
71039;SHT30;58692;43.212;27.908;2023-12-28T10:15:57;16.11;61.78
71039;SHT30;58692;43.212;27.908;2023-12-28T10:18:23;15.91;62.41
71039;SHT30;58692;43.212;27.908;2023-12-28T10:20:50;16.21;61.97
71039;SHT30;58692;43.212;27.908;2023-12-28T10:23:17;15.98;62.06
71039;SHT30;58692;43.212;27.908;2023-12-28T10:25:43;15.93;62.24
71039;SHT30;58692;43.212;27.908;2023-12-28T10:28:10;16.28;61.44
71039;SHT30;58692;43.212;27.908;2023-12-28T10:30:38;17.12;59.91
71039;SHT30;58692;43.212;27.908;2023-12-28T10:33:05;17.20;59.04
71039;SHT30;58692;43.212;27.908;2023-12-28T10:35:31;17.02;59.40
71039;SHT30;58692;43.212;27.908;2023-12-28T10:38:00;16.79;59.65
71039;SHT30;58692;43.212;27.908;2023-12-28T10:40:27;16.00;62.28
71039;SHT30;58692;43.212;27.908;2023-12-28T10:42:57;15.56;63.47
71039;SHT30;58692;43.212;27.908;2023-12-28T10:45:26;15.26;65.16
71039;SHT30;58692;43.212;27.908;2023-12-28T10:50:39;15.05;66.31
71039;SHT30;58692;43.212;27.908;2023-12-28T10:56:00;15.76;64.14
71039;SHT30;58692;43.212;27.908;2023-12-28T11:01:26;14.58;67.61
71039;SHT30;58692;43.212;27.908;2023-12-28T11:06:51;15.49;65.29
71039;SHT30;58692;43.212;27.908;2023-12-28T11:09:20;15.39;65.54
71039;SHT30;58692;43.212;27.908;2023-12-28T11:11:48;14.74;67.18
71039;SHT30;58692;43.212;27.908;2023-12-28T11:14:17;15.40;66.16
71039;SHT30;58692;43.212;27.908;2023-12-28T11:16:44;15.93;64.08
71039;SHT30;58692;43.212;27.908;2023-12-28T11:19:11;15.91;64.16
71039;SHT30;58692;43.212;27.908;2023-12-28T11:21:38;15.86;63.82
71039;SHT30;58692;43.212;27.908;2023-12-28T11:24:04;15.93;64.09
71039;SHT30;58692;43.212;27.908;2023-12-28T11:26:30;16.18;63.51
71039;SHT30;58692;43.212;27.908;2023-12-28T11:29:04;16.35;62.61
71039;SHT30;58692;43.212;27.908;2023-12-28T11:31:34;16.07;63.41
71039;SHT30;58692;43.212;27.908;2023-12-28T11:34:01;16.03;63.10
71039;SHT30;58692;43.212;27.908;2023-12-28T11:36:34;15.49;64.54
71039;SHT30;58692;43.212;27.908;2023-12-28T11:39:03;15.60;64.40
71039;SHT30;58692;43.212;27.908;2023-12-28T11:41:32;15.70;64.13
71039;SHT30;58692;43.212;27.908;2023-12-28T11:44:02;15.74;64.10
71039;SHT30;58692;43.212;27.908;2023-12-28T11:46:30;16.01;63.16
71039;SHT30;58692;43.212;27.908;2023-12-28T11:49:06;15.53;64.62
71039;SHT30;58692;43.212;27.908;2023-12-28T11:51:34;15.80;63.67
71039;SHT30;58692;43.212;27.908;2023-12-28T11:54:01;15.82;63.42
71039;SHT30;58692;43.212;27.908;2023-12-28T11:56:26;15.67;63.85
71039;SHT30;58692;43.212;27.908;2023-12-28T11:58:52;15.38;64.63
71039;SHT30;58692;43.212;27.908;2023-12-28T12:01:18;15.64;63.85
71039;SHT30;58692;43.212;27.908;2023-12-28T12:03:43;15.97;63.25
71039;SHT30;58692;43.212;27.908;2023-12-28T12:06:10;15.60;63.57
71039;SHT30;58692;43.212;27.908;2023-12-28T12:08:35;15.08;65.35
71039;SHT30;58692;43.212;27.908;2023-12-28T12:11:02;14.93;65.75
71039;SHT30;58692;43.212;27.908;2023-12-28T12:13:29;14.61;66.25
71039;SHT30;58692;43.212;27.908;2023-12-28T12:15:55;14.63;66.54
71039;SHT30;58692;43.212;27.908;2023-12-28T12:18:22;14.64;66.59
71039;SHT30;58692;43.212;27.908;2023-12-28T12:20:49;14.88;65.99
71039;SHT30;58692;43.212;27.908;2023-12-28T12:23:15;14.63;66.35
71039;SHT30;58692;43.212;27.908;2023-12-28T12:25:41;14.20;67.53
71039;SHT30;58692;43.212;27.908;2023-12-28T12:28:07;13.58;69.66
71039;SHT30;58692;43.212;27.908;2023-12-28T12:30:33;13.46;70.46
71039;SHT30;58692;43.212;27.908;2023-12-28T12:32:58;13.07;71.67
71039;SHT30;58692;43.212;27.908;2023-12-28T12:35:24;13.48;70.97
71039;SHT30;58692;43.212;27.908;2023-12-28T12:37:50;13.41;71.22
71039;SHT30;58692;43.212;27.908;2023-12-28T12:40:17;13.32;71.76
71039;SHT30;58692;43.212;27.908;2023-12-28T12:42:53;13.35;72.28
71039;SHT30;58692;43.212;27.908;2023-12-28T12:45:20;13.38;72.81
71039;SHT30;58692;43.212;27.908;2023-12-28T12:47:47;13.58;72.69
71039;SHT30;58692;43.212;27.908;2023-12-28T12:50:15;13.46;73.16
71039;SHT30;58692;43.212;27.908;2023-12-28T12:52:42;13.58;73.13
71039;SHT30;58692;43.212;27.908;2023-12-28T12:55:12;13.73;72.94
71039;SHT30;58692;43.212;27.908;2023-12-28T12:57:39;13.75;72.72
71039;SHT30;58692;43.212;27.908;2023-12-28T13:00:06;13.32;73.24
71039;SHT30;58692;43.212;27.908;2023-12-28T13:02:36;13.63;72.47
71039;SHT30;58692;43.212;27.908;2023-12-28T13:05:03;13.62;72.48
71039;SHT30;58692;43.212;27.908;2023-12-28T13:07:30;13.41;73.04
71039;SHT30;58692;43.212;27.908;2023-12-28T13:09:56;12.98;74.38
71039;SHT30;58692;43.212;27.908;2023-12-28T13:12:21;12.65;75.10
71039;SHT30;58692;43.212;27.908;2023-12-28T13:14:47;12.70;74.99
71039;SHT30;58692;43.212;27.908;2023-12-28T13:17:13;12.77;74.75
71039;SHT30;58692;43.212;27.908;2023-12-28T13:19:38;12.47;75.25
71039;SHT30;58692;43.212;27.908;2023-12-28T13:22:04;12.53;74.63
71039;SHT30;58692;43.212;27.908;2023-12-28T13:24:30;12.50;74.75
71039;SHT30;58692;43.212;27.908;2023-12-28T13:26:56;12.57;74.09
71039;SHT30;58692;43.212;27.908;2023-12-28T13:29:22;12.59;74.14
71039;SHT30;58692;43.212;27.908;2023-12-28T13:31:48;12.39;74.40
71039;SHT30;58692;43.212;27.908;2023-12-28T13:34:16;12.40;74.44
71039;SHT30;58692;43.212;27.908;2023-12-28T13:36:44;12.51;73.91
71039;SHT30;58692;43.212;27.908;2023-12-28T13:39:09;12.54;73.71
71039;SHT30;58692;43.212;27.908;2023-12-28T13:41:37;12.64;73.21
71039;SHT30;58692;43.212;27.908;2023-12-28T13:44:03;12.54;73.60
71039;SHT30;58692;43.212;27.908;2023-12-28T13:46:32;12.50;73.95
71039;SHT30;58692;43.212;27.908;2023-12-28T13:48:58;12.41;74.15
71039;SHT30;58692;43.212;27.908;2023-12-28T13:51:24;12.37;74.08
71039;SHT30;58692;43.212;27.908;2023-12-28T13:53:50;12.46;73.81
71039;SHT30;58692;43.212;27.908;2023-12-28T13:56:16;12.51;73.62
71039;SHT30;58692;43.212;27.908;2023-12-28T13:58:41;12.54;73.89
71039;SHT30;58692;43.212;27.908;2023-12-28T14:01:07;12.54;73.80
71039;SHT30;58692;43.212;27.908;2023-12-28T14:03:33;12.41;73.89
71039;SHT30;58692;43.212;27.908;2023-12-28T14:05:58;12.30;74.63
71039;SHT30;58692;43.212;27.908;2023-12-28T14:08:25;12.32;74.61
71039;SHT30;58692;43.212;27.908;2023-12-28T14:10:50;12.26;74.98
71039;SHT30;58692;43.212;27.908;2023-12-28T14:13:16;12.12;75.49
71039;SHT30;58692;43.212;27.908;2023-12-28T14:15:41;12.02;76.21
71039;SHT30;58692;43.212;27.908;2023-12-28T14:18:07;11.93;76.51
71039;SHT30;58692;43.212;27.908;2023-12-28T14:20:34;11.83;77.07
71039;SHT30;58692;43.212;27.908;2023-12-28T14:23:00;11.71;77.66
71039;SHT30;58692;43.212;27.908;2023-12-28T14:25:27;11.61;77.94
71039;SHT30;58692;43.212;27.908;2023-12-28T14:27:53;11.52;78.35
71039;SHT30;58692;43.212;27.908;2023-12-28T14:30:19;11.57;78.50
71039;SHT30;58692;43.212;27.908;2023-12-28T14:32:45;11.47;78.83
71039;SHT30;58692;43.212;27.908;2023-12-28T14:35:11;11.42;79.19
71039;SHT30;58692;43.212;27.908;2023-12-28T14:37:37;11.30;79.77
71039;SHT30;58692;43.212;27.908;2023-12-28T14:40:03;11.21;80.09
71039;SHT30;58692;43.212;27.908;2023-12-28T14:42:32;11.20;80.44
71039;SHT30;58692;43.212;27.908;2023-12-28T14:44:59;11.13;80.78
71039;SHT30;58692;43.212;27.908;2023-12-28T14:47:27;11.14;80.67
71039;SHT30;58692;43.212;27.908;2023-12-28T14:49:53;11.16;80.54
71039;SHT30;58692;43.212;27.908;2023-12-28T14:52:21;11.20;80.54
71039;SHT30;58692;43.212;27.908;2023-12-28T14:54:46;11.13;80.69
71039;SHT30;58692;43.212;27.908;2023-12-28T14:57:12;11.17;80.44
71039;SHT30;58692;43.212;27.908;2023-12-28T14:59:38;11.21;80.28
71039;SHT30;58692;43.212;27.908;2023-12-28T15:02:03;11.17;80.28
71039;SHT30;58692;43.212;27.908;2023-12-28T15:04:29;11.10;80.58
71039;SHT30;58692;43.212;27.908;2023-12-28T15:06:55;11.11;80.44
71039;SHT30;58692;43.212;27.908;2023-12-28T15:09:21;11.16;80.40
71039;SHT30;58692;43.212;27.908;2023-12-28T15:11:47;11.13;80.56
71039;SHT30;58692;43.212;27.908;2023-12-28T15:14:12;11.18;80.32
71039;SHT30;58692;43.212;27.908;2023-12-28T15:16:38;11.31;80.04
71039;SHT30;58692;43.212;27.908;2023-12-28T15:19:04;11.23;80.11
71039;SHT30;58692;43.212;27.908;2023-12-28T15:21:30;11.31;79.87
71039;SHT30;58692;43.212;27.908;2023-12-28T15:23:56;11.31;79.75
71039;SHT30;58692;43.212;27.908;2023-12-28T15:26:22;11.23;79.91
71039;SHT30;58692;43.212;27.908;2023-12-28T15:28:47;11.27;79.87
71039;SHT30;58692;43.212;27.908;2023-12-28T15:31:15;11.20;80.03
71039;SHT30;58692;43.212;27.908;2023-12-28T15:33:41;11.17;80.28